San Diego International Airport
KSAN : rendu visible

Aérodrome :











RETROUVEZ-NOUS SUR...

 
LOGIN :

S'inscrire | Disclaimer

   EN    FR    IT 

 









Légende :    VFR   VFR Marginal   IFR   IFR Intensif   IFR Très Intensif
Visi : 
Plafond : 
>= 8 km
>= 3000ft
5 à 8 km
1000 à 3000 ft
1500m à 5 km
500 à 1000 ft
800 à 1500m
200 à 500 ft
< 800m
< 200 ft
Symboles :   Orages  Brouillard  Fortes neiges  Fortes précipitations  Vent > 20 kt






- Altitude de l'aérodrome : 17 ft
- Code IATA : SAN


KSAN - San Diego International

DERNIER METAR :
  • 201553Z 24006G16KT 3SM R09/5500VP6000FT RA BR SCT017 BKN029 OVC037 15/13 A2968 RMK AO2 P0000 T01500128

METARs EXPIRÉS :
  • 201451Z 24006KT 10SM -RA FEW020 SCT035 BKN050 16/12 A2966 RMK AO2 RAB04E13B40 SLP042 P0000 60001 T01610117 53004 $
  • 201351Z 26013G19KT 10SM FEW025 BKN032 BKN044 17/12 A2965 RMK AO2 RAB09E39 SLP039 VCSH P0001 T01670117 $

TAF KSAN
Valide du 20 à 15h jusqu'au 21 à 18h UTC


201501Z 2015/2118 23015G25KT P6SM -SHRA SCT020 BKN035
FM201800 20014G22KT P6SM -SHRA BKN025 BKN040
TEMPO 2020/2024 4SM TSRA BR BKN018CB
FM210100 23010G18KT P6SM -SHRA SCT020 BKN030
FM210900 26008KT P6SM VCSH SCT020 BKN030



MET'MAP, la Météo Aéronautique d'un coup d'oeil ! - Copyright ORBIFLY Décembre 2007 - Disclaimer

ORBIFLY MET'MAP TEAM :

Programmation & Développement : Alexandra Zaïnal
Conception & Développement : Baudouin d'Aumeries
Co-Programmation & Développement : Marc-Olivier Méhu
Soutien technique & logistique : Manuel Goepfert

Contact : metmap@orbifly.com




SOURCES & CREDITS :

   NOAA       Earth
Advisory